sensor_id;sensor_type;location;lat;lon;timestamp;pressure;altitude;pressure_sealevel;temperature;humidity
42587;BME280;28216;53.362;-6.288;2023-07-31T00:01:52;99992.84;;;17.86;100.00
42587;BME280;28216;53.362;-6.288;2023-07-31T00:04:18;99988.34;;;17.87;100.00
42587;BME280;28216;53.362;-6.288;2023-07-31T00:06:43;99994.81;;;17.91;100.00
42587;BME280;28216;53.362;-6.288;2023-07-31T00:09:11;99980.59;;;17.85;100.00
42587;BME280;28216;53.362;-6.288;2023-07-31T00:11:39;99986.56;;;17.81;100.00
42587;BME280;28216;53.362;-6.288;2023-07-31T00:14:10;99980.84;;;17.84;100.00
42587;BME280;28216;53.362;-6.288;2023-07-31T00:16:35;99976.13;;;17.86;100.00
42587;BME280;28216;53.362;-6.288;2023-07-31T00:19:00;99965.94;;;17.83;100.00
42587;BME280;28216;53.362;-6.288;2023-07-31T00:21:26;99965.34;;;17.81;100.00
42587;BME280;28216;53.362;-6.288;2023-07-31T00:23:51;99961.88;;;17.80;100.00
42587;BME280;28216;53.362;-6.288;2023-07-31T00:26:17;99964.31;;;17.82;100.00
42587;BME280;28216;53.362;-6.288;2023-07-31T00:28:42;99954.38;;;17.77;100.00
42587;BME280;28216;53.362;-6.288;2023-07-31T00:31:08;99961.53;;;17.76;100.00
42587;BME280;28216;53.362;-6.288;2023-07-31T00:33:34;99959.69;;;17.77;100.00
42587;BME280;28216;53.362;-6.288;2023-07-31T00:36:00;99957.03;;;17.77;100.00
42587;BME280;28216;53.362;-6.288;2023-07-31T00:38:25;99956.66;;;17.73;100.00
42587;BME280;28216;53.362;-6.288;2023-07-31T00:40:51;99958.66;;;17.78;100.00
42587;BME280;28216;53.362;-6.288;2023-07-31T00:43:16;99955.50;;;17.69;100.00
42587;BME280;28216;53.362;-6.288;2023-07-31T00:45:42;99953.00;;;17.74;100.00
42587;BME280;28216;53.362;-6.288;2023-07-31T00:48:07;99958.66;;;17.78;100.00
42587;BME280;28216;53.362;-6.288;2023-07-31T00:50:33;99952.03;;;17.69;100.00
42587;BME280;28216;53.362;-6.288;2023-07-31T00:53:00;99956.66;;;17.73;100.00
42587;BME280;28216;53.362;-6.288;2023-07-31T00:55:25;99960.06;;;17.62;100.00
42587;BME280;28216;53.362;-6.288;2023-07-31T00:57:52;99960.66;;;17.64;100.00
42587;BME280;28216;53.362;-6.288;2023-07-31T01:00:18;99960.06;;;17.62;100.00
42587;BME280;28216;53.362;-6.288;2023-07-31T01:02:44;99971.69;;;17.61;100.00
42587;BME280;28216;53.362;-6.288;2023-07-31T01:05:09;99958.97;;;17.70;100.00
42587;BME280;28216;53.362;-6.288;2023-07-31T01:07:45;99948.19;;;17.65;100.00
42587;BME280;28216;53.362;-6.288;2023-07-31T01:10:26;99957.41;;;17.62;100.00
42587;BME280;28216;53.362;-6.288;2023-07-31T01:12:53;99961.09;;;17.61;100.00
42587;BME280;28216;53.362;-6.288;2023-07-31T01:15:18;99948.66;;;17.62;100.00
42587;BME280;28216;53.362;-6.288;2023-07-31T01:17:44;99950.50;;;17.61;100.00
42587;BME280;28216;53.362;-6.288;2023-07-31T01:20:17;99941.50;;;17.62;100.00
42587;BME280;28216;53.362;-6.288;2023-07-31T01:28:21;99955.72;;;17.68;100.00
42587;BME280;28216;53.362;-6.288;2023-07-31T01:30:48;99950.72;;;17.60;100.00
42587;BME280;28216;53.362;-6.288;2023-07-31T01:33:16;99947.63;;;17.63;100.00
42587;BME280;28216;53.362;-6.288;2023-07-31T01:35:44;99946.44;;;17.59;100.00
42587;BME280;28216;53.362;-6.288;2023-07-31T01:38:10;99940.88;;;17.48;100.00
42587;BME280;28216;53.362;-6.288;2023-07-31T01:40:35;99940.28;;;17.46;100.00
42587;BME280;28216;53.362;-6.288;2023-07-31T01:43:01;99936.25;;;17.44;100.00
42587;BME280;28216;53.362;-6.288;2023-07-31T01:45:26;99939.34;;;17.41;100.00
42587;BME280;28216;53.362;-6.288;2023-07-31T01:47:52;99940.38;;;17.40;100.00
42587;BME280;28216;53.362;-6.288;2023-07-31T01:50:17;99947.22;;;17.47;100.00
42587;BME280;28216;53.362;-6.288;2023-07-31T01:52:43;99945.59;;;17.46;100.00
42587;BME280;28216;53.362;-6.288;2023-07-31T01:55:08;99952.72;;;17.46;100.00
42587;BME280;28216;53.362;-6.288;2023-07-31T01:57:36;99956.19;;;17.46;100.00
42587;BME280;28216;53.362;-6.288;2023-07-31T02:00:01;99947.78;;;17.50;100.00
42587;BME280;28216;53.362;-6.288;2023-07-31T02:02:27;99943.66;;;17.54;100.00
42587;BME280;28216;53.362;-6.288;2023-07-31T02:04:52;99943.97;;;17.45;100.00
42587;BME280;28216;53.362;-6.288;2023-07-31T02:07:18;99958.25;;;17.44;100.00
42587;BME280;28216;53.362;-6.288;2023-07-31T02:09:43;99956.13;;;17.35;100.00
42587;BME280;28216;53.362;-6.288;2023-07-31T02:12:09;99948.56;;;17.38;100.00
42587;BME280;28216;53.362;-6.288;2023-07-31T02:14:34;99960.69;;;17.46;100.00
42587;BME280;28216;53.362;-6.288;2023-07-31T02:17:00;99952.00;;;17.39;100.00
42587;BME280;28216;53.362;-6.288;2023-07-31T02:19:25;99954.44;;;17.40;100.00
42587;BME280;28216;53.362;-6.288;2023-07-31T02:21:51;99943.38;;;17.43;100.00
42587;BME280;28216;53.362;-6.288;2023-07-31T02:24:16;99949.03;;;17.47;100.00
42587;BME280;28216;53.362;-6.288;2023-07-31T02:26:42;99963.78;;;17.43;100.00
42587;BME280;28216;53.362;-6.288;2023-07-31T02:29:08;99956.28;;;17.40;100.00
42587;BME280;28216;53.362;-6.288;2023-07-31T02:31:33;99954.22;;;17.42;100.00
42587;BME280;28216;53.362;-6.288;2023-07-31T02:33:59;99957.09;;;17.40;100.00
42587;BME280;28216;53.362;-6.288;2023-07-31T02:36:24;99955.97;;;17.48;100.00
42587;BME280;28216;53.362;-6.288;2023-07-31T02:38:50;99955.25;;;17.41;100.00
42587;BME280;28216;53.362;-6.288;2023-07-31T02:41:15;99950.31;;;17.44;100.00
42587;BME280;28216;53.362;-6.288;2023-07-31T02:43:41;99947.22;;;17.47;100.00
42587;BME280;28216;53.362;-6.288;2023-07-31T02:46:06;99950.97;;;17.40;100.00
42587;BME280;28216;53.362;-6.288;2023-07-31T02:48:32;99947.28;;;17.41;100.00
42587;BME280;28216;53.362;-6.288;2023-07-31T02:50:57;99952.81;;;17.39;100.00
42587;BME280;28216;53.362;-6.288;2023-07-31T02:53:22;99944.28;;;17.37;100.00
42587;BME280;28216;53.362;-6.288;2023-07-31T02:55:48;99949.81;;;17.36;100.00
42587;BME280;28216;53.362;-6.288;2023-07-31T02:58:14;99946.47;;;17.40;100.00
42587;BME280;28216;53.362;-6.288;2023-07-31T03:00:43;99939.88;;;17.31;100.00
42587;BME280;28216;53.362;-6.288;2023-07-31T03:03:08;99940.38;;;17.40;100.00
42587;BME280;28216;53.362;-6.288;2023-07-31T03:05:34;99929.34;;;17.43;100.00
42587;BME280;28216;53.362;-6.288;2023-07-31T03:07:59;99923.66;;;17.39;100.00
42587;BME280;28216;53.362;-6.288;2023-07-31T03:10:24;99923.34;;;17.47;100.00
42587;BME280;28216;53.362;-6.288;2023-07-31T03:12:50;99929.56;;;17.41;100.00
42587;BME280;28216;53.362;-6.288;2023-07-31T03:15:15;99923.00;;;17.44;100.00
42587;BME280;28216;53.362;-6.288;2023-07-31T03:17:41;99920.88;;;17.34;100.00
42587;BME280;28216;53.362;-6.288;2023-07-31T03:20:07;99925.66;;;17.44;100.00
42587;BME280;28216;53.362;-6.288;2023-07-31T03:22:33;99927.00;;;17.35;100.00
42587;BME280;28216;53.362;-6.288;2023-07-31T03:25:01;99937.00;;;17.33;100.00
42587;BME280;28216;53.362;-6.288;2023-07-31T03:27:26;99939.38;;;17.23;100.00
42587;BME280;28216;53.362;-6.288;2023-07-31T03:29:51;99939.28;;;17.29;100.00
42587;BME280;28216;53.362;-6.288;2023-07-31T03:32:17;99927.78;;;17.35;100.00
42587;BME280;28216;53.362;-6.288;2023-07-31T03:34:42;99927.06;;;17.28;100.00
42587;BME280;28216;53.362;-6.288;2023-07-31T03:37:08;99930.91;;;17.32;100.00
42587;BME280;28216;53.362;-6.288;2023-07-31T03:39:35;99928.59;;;17.36;100.00
42587;BME280;28216;53.362;-6.288;2023-07-31T03:42:00;99929.28;;;17.31;100.00
42587;BME280;28216;53.362;-6.288;2023-07-31T03:44:26;99928.03;;;17.34;100.00
42587;BME280;28216;53.362;-6.288;2023-07-31T03:46:51;99920.66;;;17.36;100.00
42587;BME280;28216;53.362;-6.288;2023-07-31T03:49:17;99910.16;;;17.29;100.00
42587;BME280;28216;53.362;-6.288;2023-07-31T03:51:42;99903.72;;;17.37;100.00
42587;BME280;28216;53.362;-6.288;2023-07-31T03:54:08;99891.06;;;17.39;100.00
42587;BME280;28216;53.362;-6.288;2023-07-31T03:56:33;99894.38;;;17.34;100.00
42587;BME280;28216;53.362;-6.288;2023-07-31T03:58:59;99902.78;;;17.31;100.00
42587;BME280;28216;53.362;-6.288;2023-07-31T04:01:24;99912.94;;;17.34;100.00
42587;BME280;28216;53.362;-6.288;2023-07-31T04:03:50;99906.69;;;17.29;100.00
42587;BME280;28216;53.362;-6.288;2023-07-31T04:06:15;99908.09;;;17.31;100.00
42587;BME280;28216;53.362;-6.288;2023-07-31T04:08:43;99915.22;;;17.31;100.00
42587;BME280;28216;53.362;-6.288;2023-07-31T04:11:10;99907.78;;;17.39;100.00
42587;BME280;28216;53.362;-6.288;2023-07-31T04:13:35;99907.53;;;17.41;100.00
42587;BME280;28216;53.362;-6.288;2023-07-31T04:16:00;99919.97;;;17.40;100.00
42587;BME280;28216;53.362;-6.288;2023-07-31T04:18:26;99930.59;;;17.40;100.00
42587;BME280;28216;53.362;-6.288;2023-07-31T04:20:51;99926.69;;;17.43;100.00
42587;BME280;28216;53.362;-6.288;2023-07-31T04:23:17;99932.56;;;17.45;100.00
42587;BME280;28216;53.362;-6.288;2023-07-31T04:25:42;99943.63;;;17.42;100.00
42587;BME280;28216;53.362;-6.288;2023-07-31T04:28:08;99948.31;;;17.40;100.00
42587;BME280;28216;53.362;-6.288;2023-07-31T04:30:33;99948.56;;;17.38;100.00
42587;BME280;28216;53.362;-6.288;2023-07-31T04:32:59;99955.19;;;17.29;100.00
42587;BME280;28216;53.362;-6.288;2023-07-31T04:35:24;99939.06;;;17.31;100.00
42587;BME280;28216;53.362;-6.288;2023-07-31T04:37:50;99925.22;;;17.29;100.00
42587;BME280;28216;53.362;-6.288;2023-07-31T04:40:16;99924.66;;;17.27;100.00
42587;BME280;28216;53.362;-6.288;2023-07-31T04:42:41;99927.28;;;17.27;100.00
42587;BME280;28216;53.362;-6.288;2023-07-31T04:45:08;99919.94;;;17.29;100.00
42587;BME280;28216;53.362;-6.288;2023-07-31T04:47:34;99916.94;;;17.25;100.00
42587;BME280;28216;53.362;-6.288;2023-07-31T04:49:59;99918.47;;;17.33;100.00
42587;BME280;28216;53.362;-6.288;2023-07-31T04:52:25;99916.97;;;17.37;100.00
42587;BME280;28216;53.362;-6.288;2023-07-31T04:54:50;99913.06;;;17.39;100.00
42587;BME280;28216;53.362;-6.288;2023-07-31T04:57:15;99909.84;;;17.37;100.00
42587;BME280;28216;53.362;-6.288;2023-07-31T04:59:41;99919.19;;;17.40;100.00
42587;BME280;28216;53.362;-6.288;2023-07-31T05:02:08;99912.03;;;17.40;100.00
42587;BME280;28216;53.362;-6.288;2023-07-31T05:04:33;99923.31;;;17.36;100.00
42587;BME280;28216;53.362;-6.288;2023-07-31T05:06:59;99932.66;;;17.38;100.00
42587;BME280;28216;53.362;-6.288;2023-07-31T05:09:24;99931.25;;;17.36;100.00
42587;BME280;28216;53.362;-6.288;2023-07-31T05:11:50;99945.75;;;17.33;100.00
42587;BME280;28216;53.362;-6.288;2023-07-31T05:14:15;99941.72;;;17.31;100.00
42587;BME280;28216;53.362;-6.288;2023-07-31T05:16:41;99950.84;;;17.35;100.00
42587;BME280;28216;53.362;-6.288;2023-07-31T05:19:06;99942.06;;;17.34;100.00
42587;BME280;28216;53.362;-6.288;2023-07-31T05:21:32;99946.56;;;17.34;100.00
42587;BME280;28216;53.362;-6.288;2023-07-31T05:23:57;99943.13;;;17.15;100.00
42587;BME280;28216;53.362;-6.288;2023-07-31T05:26:23;99939.94;;;17.06;100.00
42587;BME280;28216;53.362;-6.288;2023-07-31T05:28:48;99943.72;;;17.17;100.00
42587;BME280;28216;53.362;-6.288;2023-07-31T05:31:14;99936.28;;;17.26;100.00
42587;BME280;28216;53.362;-6.288;2023-07-31T05:33:39;99946.06;;;17.07;100.00
42587;BME280;28216;53.362;-6.288;2023-07-31T05:36:05;99939.00;;;17.01;100.00
42587;BME280;28216;53.362;-6.288;2023-07-31T05:38:30;99940.97;;;17.05;100.00
42587;BME280;28216;53.362;-6.288;2023-07-31T05:40:56;99934.66;;;17.06;100.00
42587;BME280;28216;53.362;-6.288;2023-07-31T05:43:21;99927.72;;;17.05;100.00
42587;BME280;28216;53.362;-6.288;2023-07-31T05:45:47;99922.59;;;17.10;100.00
42587;BME280;28216;53.362;-6.288;2023-07-31T05:48:12;99929.31;;;17.13;100.00
42587;BME280;28216;53.362;-6.288;2023-07-31T05:50:38;99936.66;;;17.11;100.00
42587;BME280;28216;53.362;-6.288;2023-07-31T05:53:06;99936.13;;;17.21;100.00
42587;BME280;28216;53.362;-6.288;2023-07-31T05:55:33;99927.69;;;17.12;100.00
42587;BME280;28216;53.362;-6.288;2023-07-31T05:57:58;99934.00;;;17.11;100.00
42587;BME280;28216;53.362;-6.288;2023-07-31T06:00:24;99930.16;;;17.07;100.00
42587;BME280;28216;53.362;-6.288;2023-07-31T06:02:49;99930.69;;;16.97;100.00
42587;BME280;28216;53.362;-6.288;2023-07-31T06:05:15;99931.78;;;17.08;100.00
42587;BME280;28216;53.362;-6.288;2023-07-31T06:07:40;99934.81;;;17.11;100.00
42587;BME280;28216;53.362;-6.288;2023-07-31T06:10:06;99929.13;;;17.08;100.00
42587;BME280;28216;53.362;-6.288;2023-07-31T06:12:32;99923.34;;;17.18;100.00
42587;BME280;28216;53.362;-6.288;2023-07-31T06:14:58;99912.19;;;17.09;100.00
42587;BME280;28216;53.362;-6.288;2023-07-31T06:17:23;99917.94;;;17.06;100.00
42587;BME280;28216;53.362;-6.288;2023-07-31T06:19:51;99912.50;;;17.01;100.00
42587;BME280;28216;53.362;-6.288;2023-07-31T06:22:16;99911.13;;;16.98;100.00
42587;BME280;28216;53.362;-6.288;2023-07-31T06:24:42;99912.06;;;16.86;100.00
42587;BME280;28216;53.362;-6.288;2023-07-31T06:37:13;99891.47;;;16.88;100.00
42587;BME280;28216;53.362;-6.288;2023-07-31T06:39:39;99897.00;;;16.86;100.00
42587;BME280;28216;53.362;-6.288;2023-07-31T06:42:05;99900.66;;;16.85;100.00
42587;BME280;28216;53.362;-6.288;2023-07-31T06:44:30;99901.47;;;16.86;100.00
42587;BME280;28216;53.362;-6.288;2023-07-31T06:46:56;99911.25;;;16.85;100.00
42587;BME280;28216;53.362;-6.288;2023-07-31T06:49:21;99905.59;;;16.81;100.00
42587;BME280;28216;53.362;-6.288;2023-07-31T06:51:47;99923.25;;;16.88;100.00
42587;BME280;28216;53.362;-6.288;2023-07-31T06:54:12;99928.53;;;16.88;100.00
42587;BME280;28216;53.362;-6.288;2023-07-31T06:56:38;99932.50;;;16.97;100.00
42587;BME280;28216;53.362;-6.288;2023-07-31T06:59:03;99922.38;;;16.94;100.00
42587;BME280;28216;53.362;-6.288;2023-07-31T07:01:29;99918.25;;;16.98;100.00
42587;BME280;28216;53.362;-6.288;2023-07-31T07:03:54;99911.34;;;16.97;100.00
42587;BME280;28216;53.362;-6.288;2023-07-31T07:06:20;99903.31;;;17.03;100.00
42587;BME280;28216;53.362;-6.288;2023-07-31T07:08:45;99895.88;;;16.94;100.00
42587;BME280;28216;53.362;-6.288;2023-07-31T07:11:11;99886.69;;;16.96;100.00
42587;BME280;28216;53.362;-6.288;2023-07-31T07:13:36;99889.13;;;16.98;100.00
42587;BME280;28216;53.362;-6.288;2023-07-31T07:16:02;99901.41;;;16.92;100.00
42587;BME280;28216;53.362;-6.288;2023-07-31T07:18:27;99891.25;;;16.89;100.00
42587;BME280;28216;53.362;-6.288;2023-07-31T07:20:54;99899.56;;;16.93;100.00
42587;BME280;28216;53.362;-6.288;2023-07-31T07:23:20;99897.81;;;16.87;100.00
42587;BME280;28216;53.362;-6.288;2023-07-31T07:25:46;99905.09;;;16.91;100.00
42587;BME280;28216;53.362;-6.288;2023-07-31T07:28:12;99898.75;;;16.92;100.00
42587;BME280;28216;53.362;-6.288;2023-07-31T07:30:38;99901.78;;;16.96;100.00
42587;BME280;28216;53.362;-6.288;2023-07-31T07:33:03;99911.34;;;16.97;100.00
42587;BME280;28216;53.362;-6.288;2023-07-31T07:35:29;99903.97;;;16.99;100.00
42587;BME280;28216;53.362;-6.288;2023-07-31T07:37:54;99908.25;;;17.00;100.00
42587;BME280;28216;53.362;-6.288;2023-07-31T07:40:20;99899.03;;;17.02;100.00
42587;BME280;28216;53.362;-6.288;2023-07-31T07:42:46;99896.84;;;16.99;100.00
42587;BME280;28216;53.362;-6.288;2023-07-31T07:45:12;99897.34;;;16.90;100.00
42587;BME280;28216;53.362;-6.288;2023-07-31T07:47:40;99894.41;;;16.79;100.00
42587;BME280;28216;53.362;-6.288;2023-07-31T07:50:06;99889.41;;;16.90;100.00
42587;BME280;28216;53.362;-6.288;2023-07-31T07:52:32;99881.91;;;16.87;100.00
42587;BME280;28216;53.362;-6.288;2023-07-31T07:54:57;99881.47;;;16.90;100.00
42587;BME280;28216;53.362;-6.288;2023-07-31T07:57:23;99879.03;;;16.88;100.00
42587;BME280;28216;53.362;-6.288;2023-07-31T07:59:48;99867.56;;;16.94;100.00
42587;BME280;28216;53.362;-6.288;2023-07-31T08:02:13;99872.47;;;17.09;100.00
42587;BME280;28216;53.362;-6.288;2023-07-31T08:04:39;99872.44;;;17.15;100.00
42587;BME280;28216;53.362;-6.288;2023-07-31T08:07:05;99871.31;;;17.23;100.00
42587;BME280;28216;53.362;-6.288;2023-07-31T08:09:31;99878.00;;;17.26;100.00
42587;BME280;28216;53.362;-6.288;2023-07-31T08:12:00;99880.91;;;17.36;100.00
42587;BME280;28216;53.362;-6.288;2023-07-31T08:14:28;99872.47;;;17.27;100.00
42587;BME280;28216;53.362;-6.288;2023-07-31T08:16:55;99870.56;;;17.46;100.00
42587;BME280;28216;53.362;-6.288;2023-07-31T08:19:21;99885.81;;;17.51;100.00
42587;BME280;28216;53.362;-6.288;2023-07-31T08:21:48;99902.75;;;17.50;100.00
42587;BME280;28216;53.362;-6.288;2023-07-31T08:24:15;99907.69;;;17.46;100.00
42587;BME280;28216;53.362;-6.288;2023-07-31T08:26:41;99927.84;;;17.47;100.00
42587;BME280;28216;53.362;-6.288;2023-07-31T08:29:07;99926.75;;;17.36;100.00
42587;BME280;28216;53.362;-6.288;2023-07-31T08:31:33;99936.03;;;17.45;100.00
42587;BME280;28216;53.362;-6.288;2023-07-31T08:34:00;99934.50;;;17.38;100.00
42587;BME280;28216;53.362;-6.288;2023-07-31T08:36:26;99936.06;;;17.27;100.00
42587;BME280;28216;53.362;-6.288;2023-07-31T08:38:54;99936.13;;;17.21;100.00
42587;BME280;28216;53.362;-6.288;2023-07-31T08:41:20;99937.91;;;17.27;100.00
42587;BME280;28216;53.362;-6.288;2023-07-31T08:43:46;99926.34;;;17.21;100.00
42587;BME280;28216;53.362;-6.288;2023-07-31T08:46:12;99916.88;;;17.13;100.00
42587;BME280;28216;53.362;-6.288;2023-07-31T08:48:41;99918.31;;;17.28;100.00
42587;BME280;28216;53.362;-6.288;2023-07-31T08:51:08;99917.06;;;17.30;100.00
42587;BME280;28216;53.362;-6.288;2023-07-31T08:53:34;99908.22;;;17.36;100.00
42587;BME280;28216;53.362;-6.288;2023-07-31T08:56:00;99904.75;;;17.36;100.00
42587;BME280;28216;53.362;-6.288;2023-07-31T08:58:32;99896.28;;;17.45;100.00
42587;BME280;28216;53.362;-6.288;2023-07-31T09:01:01;99892.03;;;17.56;100.00
42587;BME280;28216;53.362;-6.288;2023-07-31T09:03:33;99879.81;;;17.55;100.00
42587;BME280;28216;53.362;-6.288;2023-07-31T09:05:59;99884.19;;;17.50;100.00
42587;BME280;28216;53.362;-6.288;2023-07-31T09:08:26;99870.84;;;17.56;100.00
42587;BME280;28216;53.362;-6.288;2023-07-31T09:10:59;99876.13;;;17.56;100.00
42587;BME280;28216;53.362;-6.288;2023-07-31T09:13:27;99867.28;;;17.62;100.00
42587;BME280;28216;53.362;-6.288;2023-07-31T09:15:53;99878.25;;;17.66;100.00
42587;BME280;28216;53.362;-6.288;2023-07-31T09:18:18;99875.47;;;17.61;100.00
42587;BME280;28216;53.362;-6.288;2023-07-31T09:21:03;99877.44;;;17.65;100.00
42587;BME280;28216;53.362;-6.288;2023-07-31T09:23:46;99882.34;;;17.50;100.00
42587;BME280;28216;53.362;-6.288;2023-07-31T09:26:32;99895.31;;;17.40;100.00
42587;BME280;28216;53.362;-6.288;2023-07-31T09:28:59;99903.50;;;17.38;100.00
42587;BME280;28216;53.362;-6.288;2023-07-31T09:31:42;99904.63;;;17.31;100.00
42587;BME280;28216;53.362;-6.288;2023-07-31T09:34:08;99911.09;;;17.35;100.00
42587;BME280;28216;53.362;-6.288;2023-07-31T09:39:48;99928.03;;;17.34;100.00
42587;BME280;28216;53.362;-6.288;2023-07-31T09:42:13;99925.09;;;17.24;100.00
42587;BME280;28216;53.362;-6.288;2023-07-31T09:44:40;99931.19;;;17.24;100.00
42587;BME280;28216;53.362;-6.288;2023-07-31T09:47:06;99932.59;;;17.08;100.00
42587;BME280;28216;53.362;-6.288;2023-07-31T09:49:31;99933.34;;;17.15;100.00
42587;BME280;28216;53.362;-6.288;2023-07-31T09:51:57;99936.00;;;17.15;100.00
42587;BME280;28216;53.362;-6.288;2023-07-31T09:54:22;99924.22;;;17.11;100.00
42587;BME280;28216;53.362;-6.288;2023-07-31T09:56:48;99912.44;;;17.07;100.00
42587;BME280;28216;53.362;-6.288;2023-07-31T09:59:19;99921.25;;;17.01;100.00
42587;BME280;28216;53.362;-6.288;2023-07-31T10:01:46;99922.22;;;17.07;100.00
42587;BME280;28216;53.362;-6.288;2023-07-31T10:04:12;99910.59;;;17.08;100.00
42587;BME280;28216;53.362;-6.288;2023-07-31T10:06:39;99906.03;;;17.15;100.00
42587;BME280;28216;53.362;-6.288;2023-07-31T10:09:08;99906.31;;;17.25;100.00
42587;BME280;28216;53.362;-6.288;2023-07-31T10:11:38;99905.97;;;17.22;100.00
42587;BME280;28216;53.362;-6.288;2023-07-31T10:14:07;99905.59;;;17.18;100.00
42587;BME280;28216;53.362;-6.288;2023-07-31T10:16:34;99897.50;;;17.13;100.00
42587;BME280;28216;53.362;-6.288;2023-07-31T10:19:20;99898.25;;;17.20;100.00
42587;BME280;28216;53.362;-6.288;2023-07-31T10:21:46;99903.03;;;17.11;100.00
42587;BME280;28216;53.362;-6.288;2023-07-31T10:24:14;99896.41;;;17.21;100.00
42587;BME280;28216;53.362;-6.288;2023-07-31T10:26:41;99890.16;;;17.15;100.00
42587;BME280;28216;53.362;-6.288;2023-07-31T10:29:06;99892.78;;;16.97;100.00
42587;BME280;28216;53.362;-6.288;2023-07-31T10:31:32;99891.84;;;16.91;100.00
42587;BME280;28216;53.362;-6.288;2023-07-31T10:33:59;99895.97;;;16.87;100.00
42587;BME280;28216;53.362;-6.288;2023-07-31T10:36:26;99889.50;;;16.83;100.00
42587;BME280;28216;53.362;-6.288;2023-07-31T10:38:55;99905.16;;;16.84;100.00
42587;BME280;28216;53.362;-6.288;2023-07-31T10:41:29;99916.47;;;16.92;100.00
42587;BME280;28216;53.362;-6.288;2023-07-31T10:44:03;99915.91;;;16.90;100.00
42587;BME280;28216;53.362;-6.288;2023-07-31T10:46:32;99908.47;;;16.98;100.00
42587;BME280;28216;53.362;-6.288;2023-07-31T10:49:02;99922.72;;;16.97;100.00
42587;BME280;28216;53.362;-6.288;2023-07-31T11:01:13;99908.50;;;17.46;100.00
42587;BME280;28216;53.362;-6.288;2023-07-31T11:07:02;99897.03;;;17.94;100.00
42587;BME280;28216;53.362;-6.288;2023-07-31T11:16:23;99889.66;;;17.96;100.00
42587;BME280;28216;53.362;-6.288;2023-07-31T11:25:32;99882.97;;;18.17;100.00
42587;BME280;28216;53.362;-6.288;2023-07-31T11:31:44;99891.88;;;18.23;100.00
42587;BME280;28216;53.362;-6.288;2023-07-31T11:37:20;99882.75;;;18.07;100.00
42587;BME280;28216;53.362;-6.288;2023-07-31T11:39:59;99884.88;;;17.75;100.00
42587;BME280;28216;53.362;-6.288;2023-07-31T11:42:25;99884.81;;;17.93;100.00
42587;BME280;28216;53.362;-6.288;2023-07-31T11:44:50;99872.38;;;18.05;100.00
42587;BME280;28216;53.362;-6.288;2023-07-31T11:47:16;99867.97;;;17.99;100.00
42587;BME280;28216;53.362;-6.288;2023-07-31T11:49:43;99876.41;;;18.20;100.00
42587;BME280;28216;53.362;-6.288;2023-07-31T11:52:11;99875.94;;;18.23;100.00
42587;BME280;28216;53.362;-6.288;2023-07-31T11:54:38;99866.59;;;18.20;100.00
42587;BME280;28216;53.362;-6.288;2023-07-31T11:57:04;99876.75;;;18.35;100.00
42587;BME280;28216;53.362;-6.288;2023-07-31T11:59:30;99877.00;;;18.22;100.00
42587;BME280;28216;53.362;-6.288;2023-07-31T12:01:59;99877.22;;;18.32;100.00
42587;BME280;28216;53.362;-6.288;2023-07-31T12:04:25;99881.38;;;18.39;100.00
42587;BME280;28216;53.362;-6.288;2023-07-31T12:06:52;99871.91;;;18.79;100.00
42587;BME280;28216;53.362;-6.288;2023-07-31T12:09:18;99856.34;;;19.11;100.00
42587;BME280;28216;53.362;-6.288;2023-07-31T12:11:45;99855.34;;;19.28;100.00
42587;BME280;28216;53.362;-6.288;2023-07-31T12:14:41;99850.88;;;19.46;100.00
42587;BME280;28216;53.362;-6.288;2023-07-31T12:17:08;99847.72;;;19.60;100.00
42587;BME280;28216;53.362;-6.288;2023-07-31T12:19:34;99844.75;;;19.74;100.00
42587;BME280;28216;53.362;-6.288;2023-07-31T12:22:00;99821.53;;;19.52;100.00
42587;BME280;28216;53.362;-6.288;2023-07-31T12:24:26;99819.59;;;19.64;100.00
42587;BME280;28216;53.362;-6.288;2023-07-31T12:26:52;99812.81;;;19.90;100.00
42587;BME280;28216;53.362;-6.288;2023-07-31T12:29:21;99808.28;;;20.24;100.00
42587;BME280;28216;53.362;-6.288;2023-07-31T12:31:46;99798.13;;;20.21;100.00
42587;BME280;28216;53.362;-6.288;2023-07-31T12:34:19;99809.66;;;20.10;100.00
42587;BME280;28216;53.362;-6.288;2023-07-31T12:37:05;99796.94;;;20.12;100.00
42587;BME280;28216;53.362;-6.288;2023-07-31T12:39:31;99791.91;;;20.16;100.00
42587;BME280;28216;53.362;-6.288;2023-07-31T12:41:56;99796.16;;;20.34;100.00
42587;BME280;28216;53.362;-6.288;2023-07-31T12:44:25;99787.56;;;20.70;100.00
42587;BME280;28216;53.362;-6.288;2023-07-31T12:46:51;99782.78;;;20.94;100.00
42587;BME280;28216;53.362;-6.288;2023-07-31T12:49:16;99783.41;;;21.01;100.00
42587;BME280;28216;53.362;-6.288;2023-07-31T12:51:42;99786.72;;;21.13;100.00
42587;BME280;28216;53.362;-6.288;2023-07-31T12:54:07;99780.72;;;21.23;100.00
42587;BME280;28216;53.362;-6.288;2023-07-31T12:56:54;99776.47;;;21.27;100.00
42587;BME280;28216;53.362;-6.288;2023-07-31T12:59:19;99766.91;;;21.31;100.00
42587;BME280;28216;53.362;-6.288;2023-07-31T13:01:45;99771.59;;;20.92;100.00
42587;BME280;28216;53.362;-6.288;2023-07-31T13:04:10;99765.81;;;21.00;100.00
42587;BME280;28216;53.362;-6.288;2023-07-31T13:06:36;99772.34;;;20.66;100.00
42587;BME280;28216;53.362;-6.288;2023-07-31T13:09:01;99775.22;;;20.04;100.00
42587;BME280;28216;53.362;-6.288;2023-07-31T13:11:27;99769.75;;;19.93;100.00
42587;BME280;28216;53.362;-6.288;2023-07-31T13:13:52;99767.03;;;19.72;100.00
42587;BME280;28216;53.362;-6.288;2023-07-31T13:16:18;99758.00;;;19.39;100.00
42587;BME280;28216;53.362;-6.288;2023-07-31T13:18:43;99768.91;;;19.26;100.00
42587;BME280;28216;53.362;-6.288;2023-07-31T13:21:09;99761.34;;;19.18;100.00
42587;BME280;28216;53.362;-6.288;2023-07-31T13:23:34;99772.03;;;19.06;100.00
42587;BME280;28216;53.362;-6.288;2023-07-31T13:26:00;99765.91;;;19.34;100.00
42587;BME280;28216;53.362;-6.288;2023-07-31T13:28:25;99760.97;;;19.43;100.00
42587;BME280;28216;53.362;-6.288;2023-07-31T13:30:51;99760.19;;;19.42;100.00